Time;durP1;ratioP1;P1;durP2;ratioP2;P2;SDS_P1;SDS_P2;PMS_P1;PMS_P2;Temp;Humidity;BMP_temperature;BMP_pressure;BME280_temperature;BME280_humidity;BME280_pressure;Samples;Min_cycle;Max_cycle;Signal;HPM_P1;HPM_P2
2021/08/15 00:00:55;;;;;;;3.17;1.50;;;17.90;75.10;;;;;;4956724;28;20034;-77
2021/08/15 00:03:22;;;;;;;3.35;1.65;;;18.00;75.10;;;;;;4977949;28;20040;-78
2021/08/15 00:05:49;;;;;;;2.60;1.25;;;18.00;75.00;;;;;;4991833;28;20496;-78
2021/08/15 00:08:16;;;;;;;2.53;1.10;;;18.00;74.90;;;;;;4945525;28;20047;-78
2021/08/15 00:10:43;;;;;;;3.60;1.38;;;18.10;75.00;;;;;;4973036;28;20093;-78
2021/08/15 00:13:10;;;;;;;2.40;1.00;;;18.10;75.00;;;;;;4955950;28;20050;-77
2021/08/15 00:15:37;;;;;;;3.45;1.30;;;18.10;75.00;;;;;;4953849;28;20062;-78
2021/08/15 00:18:04;;;;;;;3.30;1.50;;;18.10;75.10;;;;;;4971022;28;20039;-78
2021/08/15 00:20:32;;;;;;;3.05;1.33;;;18.10;75.30;;;;;;4956386;28;20215;-78
2021/08/15 00:22:59;;;;;;;2.88;0.90;;;18.00;75.30;;;;;;4988496;28;20199;-78
2021/08/15 00:25:27;;;;;;;3.08;1.17;;;18.00;75.40;;;;;;4968850;28;20039;-77
2021/08/15 00:27:54;;;;;;;4.07;1.65;;;18.00;75.50;;;;;;4980208;28;20094;-78
2021/08/15 00:30:21;;;;;;;2.53;1.17;;;18.00;75.60;;;;;;4971391;28;20074;-78
2021/08/15 00:32:48;;;;;;;2.92;1.08;;;17.90;75.70;;;;;;4964209;28;20039;-78
2021/08/15 00:35:15;;;;;;;2.80;1.15;;;17.90;75.80;;;;;;4972260;28;20046;-78
2021/08/15 00:37:42;;;;;;;4.95;2.17;;;17.90;75.80;;;;;;4988268;28;20126;-78
2021/08/15 00:40:11;;;;;;;2.72;1.20;;;17.90;75.90;;;;;;4960942;28;20071;-78
2021/08/15 00:42:38;;;;;;;4.22;1.80;;;17.90;76.00;;;;;;4984075;28;20201;-78
2021/08/15 00:45:10;;;;;;;2.55;1.23;;;17.90;76.00;;;;;;4952393;28;20066;-78
2021/08/15 00:47:53;;;;;;;;;;;;;;;;;;;;;
2021/08/15 00:50:37;;;;;;;2.40;1.10;;;18.00;76.10;;;;;;4958213;28;20046;-78
2021/08/15 00:53:07;;;;;;;3.30;1.15;;;18.00;76.10;;;;;;4971475;28;20051;-79
2021/08/15 00:55:37;;;;;;;2.92;1.45;;;18.00;76.00;;;;;;4988548;28;20202;-78
2021/08/15 00:58:08;;;;;;;2.30;0.82;;;18.00;75.90;;;;;;4963696;28;20039;-78
2021/08/15 01:00:36;;;;;;;2.63;1.13;;;18.10;75.90;;;;;;4937714;29;20125;-78
2021/08/15 01:03:03;;;;;;;3.08;1.15;;;18.10;75.80;;;;;;4955304;28;20035;-78
2021/08/15 01:05:31;;;;;;;3.50;1.38;;;18.10;75.70;;;;;;4959483;28;20051;-78
2021/08/15 01:07:59;;;;;;;3.47;1.25;;;18.10;75.80;;;;;;4952824;28;20074;-78
2021/08/15 01:10:27;;;;;;;3.13;1.50;;;18.20;75.90;;;;;;4952608;28;20043;-78
2021/08/15 01:12:54;;;;;;;2.78;1.13;;;18.20;75.90;;;;;;4924658;29;20500;-78
2021/08/15 01:15:22;;;;;;;2.20;0.80;;;18.20;75.90;;;;;;4968399;28;20047;-78
2021/08/15 01:17:49;;;;;;;2.42;1.13;;;18.20;75.90;;;;;;4951431;28;20043;-79
2021/08/15 01:20:16;;;;;;;2.40;0.80;;;18.30;76.00;;;;;;4944123;29;20043;-78
2021/08/15 01:22:45;;;;;;;2.60;0.88;;;18.20;75.90;;;;;;4921554;29;20118;-78
2021/08/15 01:25:16;;;;;;;2.58;1.00;;;18.20;76.00;;;;;;4953581;29;20079;-78
2021/08/15 01:27:45;;;;;;;3.20;1.25;;;18.30;76.10;;;;;;4952515;28;20059;-78
2021/08/15 01:30:15;;;;;;;3.13;1.35;;;18.20;76.10;;;;;;4936857;29;20126;-79
2021/08/15 01:32:43;;;;;;;2.83;1.00;;;18.30;76.20;;;;;;4944609;28;20070;-78
2021/08/15 01:35:11;;;;;;;3.08;1.25;;;18.20;76.20;;;;;;4946439;28;20139;-78
2021/08/15 01:37:38;;;;;;;2.53;1.00;;;18.20;76.30;;;;;;4940375;28;20057;-78
2021/08/15 01:40:07;;;;;;;1.98;0.80;;;18.20;76.40;;;;;;4936392;29;20130;-78
2021/08/15 01:42:34;;;;;;;2.08;0.80;;;18.20;76.50;;;;;;4947499;29;20070;-78
2021/08/15 01:45:15;;;;;;;4.50;1.45;;;18.10;76.60;;;;;;4965629;28;20052;-79
2021/08/15 01:47:54;;;;;;;3.35;0.90;;;18.10;76.70;;;;;;4943590;28;20058;-79
2021/08/15 01:50:21;;;;;;;3.42;1.25;;;18.10;76.90;;;;;;4952189;28;20176;-78
2021/08/15 01:52:48;;;;;;;4.00;1.13;;;18.00;76.90;;;;;;4933051;28;20059;-79
2021/08/15 01:55:15;;;;;;;3.15;1.55;;;18.00;77.00;;;;;;4956819;29;20046;-78
2021/08/15 01:57:43;;;;;;;3.20;1.20;;;17.90;77.00;;;;;;4956404;28;20105;-79
2021/08/15 02:00:10;;;;;;;2.85;1.05;;;17.90;77.10;;;;;;4944562;28;20047;-79
2021/08/15 02:02:44;;;;;;;4.20;1.38;;;17.90;77.10;;;;;;4957638;28;20051;-79
2021/08/15 02:05:16;;;;;;;2.95;1.33;;;17.90;77.10;;;;;;4940383;29;20100;-78
2021/08/15 02:07:43;;;;;;;3.42;1.23;;;17.90;77.20;;;;;;4957389;28;20483;-78
2021/08/15 02:10:10;;;;;;;4.18;1.10;;;17.90;77.30;;;;;;4937091;29;20524;-79
2021/08/15 02:12:37;;;;;;;2.42;1.13;;;17.90;77.40;;;;;;4951607;29;20066;-79
2021/08/15 02:15:05;;;;;;;2.83;1.10;;;17.80;77.30;;;;;;4956045;28;20074;-79
2021/08/15 02:17:32;;;;;;;3.42;1.48;;;17.80;77.40;;;;;;4916893;29;20135;-79
2021/08/15 02:19:59;;;;;;;2.42;1.10;;;17.80;77.40;;;;;;4908101;28;20118;-78
2021/08/15 02:22:26;;;;;;;2.53;0.93;;;17.80;77.40;;;;;;4955664;29;20044;-78
2021/08/15 02:24:53;;;;;;;3.03;0.93;;;17.80;77.40;;;;;;4924360;29;20446;-79
2021/08/15 02:27:20;;;;;;;3.63;1.20;;;17.80;77.50;;;;;;4939823;29;20067;-78
2021/08/15 02:29:47;;;;;;;2.63;1.00;;;17.80;77.50;;;;;;4939522;29;20047;-78
2021/08/15 02:32:14;;;;;;;4.63;1.55;;;17.80;77.50;;;;;;4941523;29;20046;-78
2021/08/15 02:34:40;;;;;;;2.92;1.33;;;17.80;77.60;;;;;;4956446;29;20075;-78
2021/08/15 02:37:08;;;;;;;3.08;1.25;;;17.80;77.50;;;;;;4955512;29;20043;-78
2021/08/15 02:39:35;;;;;;;2.97;1.10;;;17.80;77.50;;;;;;4923853;29;20123;-78
2021/08/15 02:42:02;;;;;;;2.53;1.27;;;17.80;77.50;;;;;;4960376;28;20066;-79
2021/08/15 02:44:29;;;;;;;2.92;1.33;;;17.80;77.60;;;;;;4960243;28;20031;-79
2021/08/15 02:46:55;;;;;;;4.05;1.27;;;17.80;77.70;;;;;;4955299;28;20070;-78
2021/08/15 02:49:22;;;;;;;2.33;1.20;;;17.80;77.80;;;;;;4924165;29;20083;-79
2021/08/15 02:51:49;;;;;;;2.70;1.20;;;17.70;77.90;;;;;;4954642;28;20175;-79
2021/08/15 02:54:17;;;;;;;3.65;1.30;;;17.70;78.10;;;;;;4939234;29;20047;-79
2021/08/15 02:56:46;;;;;;;2.28;0.70;;;17.60;78.10;;;;;;4966110;28;20036;-78
2021/08/15 02:59:12;;;;;;;2.38;1.10;;;17.60;78.30;;;;;;4927369;28;20493;-79
2021/08/15 03:01:39;;;;;;;4.22;1.30;;;17.60;78.30;;;;;;4971314;28;20040;-79
2021/08/15 03:04:07;;;;;;;2.40;1.05;;;17.60;78.40;;;;;;4922795;29;20051;-78
2021/08/15 03:06:33;;;;;;;2.25;1.05;;;17.50;78.40;;;;;;4939313;29;20043;-78
2021/08/15 03:09:01;;;;;;;2.72;1.02;;;17.50;78.50;;;;;;4940488;28;20099;-79
2021/08/15 03:11:28;;;;;;;2.78;0.95;;;17.50;78.50;;;;;;4954482;29;20044;-79
2021/08/15 03:13:55;;;;;;;3.22;1.08;;;17.50;78.60;;;;;;4954754;28;20943;-80
2021/08/15 03:16:22;;;;;;;3.25;0.93;;;17.50;78.70;;;;;;4955315;28;20066;-79
2021/08/15 03:18:49;;;;;;;4.13;1.42;;;17.50;78.70;;;;;;4961940;28;20051;-79
2021/08/15 03:21:16;;;;;;;3.47;1.30;;;17.40;78.70;;;;;;4948756;28;20436;-79
2021/08/15 03:23:43;;;;;;;2.83;1.20;;;17.40;78.80;;;;;;4931324;29;20051;-79
2021/08/15 03:26:11;;;;;;;2.38;0.90;;;17.40;78.80;;;;;;4939877;28;20135;-79
2021/08/15 03:28:38;;;;;;;2.58;1.17;;;17.30;78.80;;;;;;4942456;29;20070;-79
2021/08/15 03:31:05;;;;;;;3.97;0.93;;;17.30;79.00;;;;;;4922196;29;20044;-78
2021/08/15 03:33:32;;;;;;;3.33;1.40;;;17.20;79.00;;;;;;4954355;28;20058;-79
2021/08/15 03:35:59;;;;;;;2.97;1.13;;;17.20;79.20;;;;;;4940346;28;20155;-79
2021/08/15 03:38:26;;;;;;;4.30;1.38;;;17.20;79.30;;;;;;4927629;28;20149;-79
2021/08/15 03:40:53;;;;;;;2.60;1.10;;;17.20;79.50;;;;;;4954544;29;20063;-79
2021/08/15 03:43:20;;;;;;;2.95;0.98;;;17.10;79.40;;;;;;4939035;29;20039;-79
2021/08/15 03:45:47;;;;;;;3.05;1.27;;;17.10;79.50;;;;;;4938504;29;20051;-79
2021/08/15 03:48:14;;;;;;;3.05;1.00;;;17.10;79.50;;;;;;4935162;29;20101;-79
2021/08/15 03:50:41;;;;;;;2.97;1.40;;;17.10;80.10;;;;;;4947609;29;20408;-79
2021/08/15 03:53:08;;;;;;;4.55;1.55;;;17.10;79.60;;;;;;4937155;29;20043;-79
2021/08/15 03:55:35;;;;;;;2.17;0.88;;;17.10;79.60;;;;;;4926156;29;20134;-79
2021/08/15 03:58:02;;;;;;;3.17;1.30;;;17.10;79.70;;;;;;4925893;28;20113;-79
2021/08/15 04:00:29;;;;;;;3.10;1.40;;;17.00;79.70;;;;;;4951146;28;20072;-79
2021/08/15 04:02:56;;;;;;;3.13;1.10;;;17.00;79.70;;;;;;4941319;28;20134;-79
2021/08/15 04:05:23;;;;;;;4.50;1.38;;;17.00;80.40;;;;;;4956998;28;20130;-79
2021/08/15 04:07:50;;;;;;;3.00;1.35;;;17.00;79.80;;;;;;4972836;28;20047;-79
2021/08/15 04:10:18;;;;;;;3.33;1.20;;;17.00;79.80;;;;;;4947041;28;20049;-79
2021/08/15 04:12:45;;;;;;;3.90;1.15;;;17.00;79.80;;;;;;4972965;28;20125;-79
2021/08/15 04:15:12;;;;;;;3.40;1.13;;;17.00;79.80;;;;;;4956868;28;20142;-79
2021/08/15 04:17:39;;;;;;;2.90;1.17;;;17.00;79.90;;;;;;4956885;28;20582;-79
2021/08/15 04:20:08;;;;;;;2.65;1.20;;;17.00;79.90;;;;;;4974081;28;20583;-79
2021/08/15 04:22:35;;;;;;;2.95;1.23;;;17.00;79.90;;;;;;4988463;28;20043;-79
2021/08/15 04:25:02;;;;;;;2.28;1.00;;;17.00;79.80;;;;;;4972584;28;20145;-80
2021/08/15 04:27:29;;;;;;;2.28;0.93;;;17.00;79.90;;;;;;4972692;28;20038;-79
2021/08/15 04:29:56;;;;;;;3.00;1.20;;;17.00;79.90;;;;;;4941235;28;20129;-79
2021/08/15 04:32:23;;;;;;;3.38;1.13;;;17.00;79.90;;;;;;4949927;28;20050;-80
2021/08/15 04:34:50;;;;;;;3.35;1.08;;;17.00;80.00;;;;;;4979430;28;20125;-79
2021/08/15 04:37:18;;;;;;;2.47;1.02;;;17.00;79.90;;;;;;4948173;28;20105;-80
2021/08/15 04:39:45;;;;;;;2.97;1.23;;;17.00;79.90;;;;;;4956476;28;20066;-80
2021/08/15 04:42:12;;;;;;;2.88;1.27;;;17.10;79.90;;;;;;4956374;28;20101;-80
2021/08/15 04:44:39;;;;;;;3.25;1.20;;;17.10;79.90;;;;;;4971658;28;20062;-79
2021/08/15 04:47:06;;;;;;;2.92;1.38;;;17.10;79.80;;;;;;4971697;28;20503;-79
2021/08/15 04:49:33;;;;;;;4.38;1.35;;;17.10;79.80;;;;;;4979283;28;20057;-79
2021/08/15 04:52:00;;;;;;;2.88;1.27;;;17.10;79.80;;;;;;4979988;28;20054;-79
2021/08/15 04:54:27;;;;;;;2.90;1.20;;;17.10;79.90;;;;;;4958360;28;20143;-79
2021/08/15 04:56:56;;;;;;;4.78;0.98;;;17.20;79.90;;;;;;4941608;28;20619;-79
2021/08/15 04:59:23;;;;;;;3.70;1.50;;;17.20;80.00;;;;;;4966551;28;20365;-79
2021/08/15 05:01:50;;;;;;;3.60;1.25;;;17.20;79.90;;;;;;4933507;29;20094;-79
2021/08/15 05:04:18;;;;;;;3.28;1.35;;;17.30;79.90;;;;;;4936717;29;20044;-80
2021/08/15 05:06:45;;;;;;;3.15;1.40;;;17.30;79.90;;;;;;4967357;28;20054;-79
2021/08/15 05:09:12;;;;;;;2.60;0.98;;;17.40;80.00;;;;;;4920560;29;20041;-79
2021/08/15 05:11:39;;;;;;;3.25;1.23;;;17.30;79.90;;;;;;4952867;28;20055;-79
2021/08/15 05:14:07;;;;;;;2.60;0.93;;;17.40;80.00;;;;;;4939555;29;20154;-79
2021/08/15 05:16:34;;;;;;;2.75;1.20;;;17.40;80.00;;;;;;4968957;28;20082;-80
2021/08/15 05:19:01;;;;;;;3.35;1.15;;;17.40;80.00;;;;;;4937241;29;20073;-79
2021/08/15 05:21:28;;;;;;;3.40;1.10;;;17.50;80.00;;;;;;4969064;28;20071;-79
2021/08/15 05:23:58;;;;;;;4.90;1.60;;;17.50;80.00;;;;;;4971144;28;20046;-79
2021/08/15 05:26:25;;;;;;;1.88;0.90;;;17.50;79.90;;;;;;4959148;28;20055;-79
2021/08/15 05:28:52;;;;;;;3.08;1.30;;;17.60;79.90;;;;;;4956890;28;20575;-80
2021/08/15 05:31:19;;;;;;;2.75;1.52;;;17.60;79.90;;;;;;4925430;29;20070;-79
2021/08/15 05:33:46;;;;;;;3.38;1.48;;;17.70;79.90;;;;;;4957954;29;20043;-79
2021/08/15 05:36:14;;;;;;;3.70;1.30;;;17.70;79.80;;;;;;4939266;28;20054;-79
2021/08/15 05:38:41;;;;;;;3.35;1.50;;;17.70;79.80;;;;;;4944105;29;20134;-79
2021/08/15 05:41:08;;;;;;;3.38;1.25;;;17.80;79.80;;;;;;4972777;28;20400;-79
2021/08/15 05:43:35;;;;;;;4.65;2.03;;;17.70;79.80;;;;;;4948770;29;20039;-80
2021/08/15 05:46:02;;;;;;;5.05;1.95;;;17.70;79.70;;;;;;4965824;28;20047;-79
2021/08/15 05:48:30;;;;;;;6.07;1.65;;;17.80;79.80;;;;;;4925109;29;20141;-79
2021/08/15 05:50:57;;;;;;;4.55;2.35;;;17.80;79.70;;;;;;4924409;28;20114;-79
2021/08/15 05:53:24;;;;;;;4.53;2.08;;;17.80;79.70;;;;;;4953808;28;20055;-79
2021/08/15 05:55:51;;;;;;;3.25;1.73;;;17.80;79.70;;;;;;4918679;29;20098;-79
2021/08/15 05:58:18;;;;;;;3.75;1.48;;;17.90;79.60;;;;;;4968101;28;20455;-79
2021/08/15 06:00:48;;;;;;;4.50;1.65;;;18.00;79.50;;;;;;4939695;29;20563;-79
2021/08/15 06:03:15;;;;;;;3.92;1.60;;;18.10;79.90;;;;;;4937095;28;20062;-79
2021/08/15 06:05:42;;;;;;;7.90;4.22;;;18.20;79.20;;;;;;4926682;29;20042;-80
2021/08/15 06:08:09;;;;;;;4.70;2.33;;;18.30;79.00;;;;;;4940109;29;20043;-79
2021/08/15 06:10:38;;;;;;;5.70;2.83;;;18.30;78.80;;;;;;4971953;28;20126;-79
2021/08/15 06:13:05;;;;;;;7.88;3.50;;;18.40;78.60;;;;;;4931057;28;20556;-79
2021/08/15 06:15:32;;;;;;;5.40;2.53;;;18.50;79.10;;;;;;4971740;28;20067;-79
2021/08/15 06:17:59;;;;;;;3.88;2.05;;;18.50;78.30;;;;;;4908692;29;20046;-79
2021/08/15 06:20:28;;;;;;;6.05;3.45;;;18.60;78.30;;;;;;4939822;29;20488;-79
2021/08/15 06:22:55;;;;;;;4.30;2.35;;;18.70;78.20;;;;;;4939281;29;20441;-79
2021/08/15 06:25:22;;;;;;;4.20;2.05;;;18.80;78.00;;;;;;4940055;28;20054;-79
2021/08/15 06:27:49;;;;;;;5.75;3.10;;;18.80;77.90;;;;;;4942443;29;20078;-79
2021/08/15 06:30:18;;;;;;;6.60;3.35;;;18.90;77.80;;;;;;4956142;29;20480;-79
2021/08/15 06:32:52;;;;;;;8.25;4.13;;;19.00;77.60;;;;;;4956735;28;20047;-79
2021/08/15 06:35:26;;;;;;;4.38;2.67;;;19.10;77.30;;;;;;4906195;29;20047;-79
2021/08/15 06:37:53;;;;;;;5.50;2.95;;;19.10;77.20;;;;;;4953326;28;20106;-79
2021/08/15 06:40:22;;;;;;;5.97;3.47;;;19.20;77.30;;;;;;4939714;29;20115;-79
2021/08/15 06:42:50;;;;;;;4.70;2.45;;;19.20;77.30;;;;;;4954986;28;20047;-79
2021/08/15 06:45:18;;;;;;;8.65;4.57;;;19.30;77.20;;;;;;4939355;29;20039;-79
2021/08/15 06:47:46;;;;;;;8.73;4.85;;;19.40;77.00;;;;;;4955751;29;20050;-79
2021/08/15 06:50:13;;;;;;;6.55;4.00;;;19.50;76.70;;;;;;4971024;28;20044;-79
2021/08/15 06:52:40;;;;;;;4.63;3.03;;;19.50;76.70;;;;;;4939114;29;20399;-79
2021/08/15 06:55:08;;;;;;;6.53;4.47;;;19.60;76.60;;;;;;4939224;28;20059;-79
2021/08/15 06:57:35;;;;;;;5.57;3.80;;;19.70;76.40;;;;;;4945891;28;20043;-79
2021/08/15 07:00:04;;;;;;;5.30;3.35;;;19.70;76.30;;;;;;4956566;28;20070;-80
2021/08/15 07:02:39;;;;;;;10.07;5.18;;;19.70;76.40;;;;;;4974781;28;20047;-79
2021/08/15 07:05:08;;;;;;;6.60;3.50;;;19.70;76.50;;;;;;4974622;28;20073;-80
2021/08/15 07:07:35;;;;;;;6.50;3.88;;;19.70;76.40;;;;;;4965022;28;20057;-80
2021/08/15 07:10:03;;;;;;;6.57;4.85;;;19.80;76.40;;;;;;4958417;28;20074;-79
2021/08/15 07:12:30;;;;;;;8.57;4.72;;;19.90;76.20;;;;;;4960469;28;20053;-79
2021/08/15 07:14:57;;;;;;;7.65;4.75;;;19.90;76.10;;;;;;4933032;28;20465;-80
2021/08/15 07:17:24;;;;;;;5.63;3.55;;;20.10;76.00;;;;;;4942994;28;20043;-80
2021/08/15 07:19:51;;;;;;;6.28;3.38;;;20.20;75.70;;;;;;4942088;28;20046;-82
2021/08/15 07:22:19;;;;;;;5.35;3.45;;;20.30;75.50;;;;;;4961562;28;20483;-82
2021/08/15 07:24:46;;;;;;;5.05;2.70;;;20.40;75.40;;;;;;4926818;28;20487;-82
2021/08/15 07:27:13;;;;;;;6.55;3.40;;;20.50;75.20;;;;;;4957402;28;20081;-82
2021/08/15 07:29:40;;;;;;;4.30;2.60;;;20.70;75.20;;;;;;4957036;28;20062;-82
2021/08/15 07:32:08;;;;;;;5.38;3.08;;;20.70;74.90;;;;;;4957807;28;20061;-82
2021/08/15 07:34:40;;;;;;;4.78;2.90;;;20.70;74.80;;;;;;4957695;28;20182;-82
2021/08/15 07:37:45;;;;;;;5.18;3.00;;;20.70;74.80;;;;;;4941983;28;20074;-82
2021/08/15 07:40:13;;;;;;;6.60;3.22;;;20.80;74.60;;;;;;4957983;28;20377;-80
2021/08/15 07:42:41;;;;;;;7.38;3.78;;;21.00;74.30;;;;;;4967142;28;20134;-83
2021/08/15 07:45:10;;;;;;;6.22;3.22;;;21.10;73.80;;;;;;4973382;28;20039;-82
2021/08/15 07:47:55;;;;;;;6.32;3.33;;;21.30;73.30;;;;;;4957465;28;20059;-82
2021/08/15 07:50:25;;;;;;;4.63;3.05;;;21.30;72.90;;;;;;4976094;28;20406;-82
2021/08/15 07:53:42;;;;;;;4.60;2.60;;;21.30;72.80;;;;;;4954129;28;20143;-82
2021/08/15 07:56:09;;;;;;;4.93;2.20;;;21.40;72.70;;;;;;4953923;28;20054;-82
2021/08/15 07:59:01;;;;;;;6.60;2.95;;;21.40;72.70;;;;;;4965824;28;20154;-82
2021/08/15 08:01:32;;;;;;;8.23;3.50;;;21.50;72.60;;;;;;4957440;28;20046;-82
2021/08/15 08:04:00;;;;;;;4.47;2.50;;;21.50;72.30;;;;;;4974412;28;20035;-82
2021/08/15 08:07:02;;;;;;;4.72;2.33;;;21.80;71.90;;;;;;4926192;28;20537;-83
2021/08/15 08:12:55;;;;;;;5.90;2.65;;;22.10;70.70;;;;;;4980995;28;20447;-80
2021/08/15 08:15:30;;;;;;;6.05;3.00;;;22.20;70.50;;;;;;4941187;28;20051;-80
2021/08/15 08:18:00;;;;;;;6.50;3.72;;;22.10;69.80;;;;;;4973182;28;20039;-82
2021/08/15 08:20:32;;;;;;;9.27;4.47;;;22.00;69.30;;;;;;4960032;28;20039;-82
2021/08/15 08:23:00;;;;;;;5.50;2.70;;;21.80;69.20;;;;;;4972222;28;20043;-82
2021/08/15 08:25:27;;;;;;;7.65;3.90;;;21.80;69.70;;;;;;4955805;28;20286;-80
2021/08/15 08:27:54;;;;;;;7.78;3.38;;;21.70;69.40;;;;;;4971872;28;20110;-81
2021/08/15 08:30:21;;;;;;;5.35;2.90;;;21.70;69.50;;;;;;4970701;28;20050;-81
2021/08/15 08:32:48;;;;;;;6.00;2.70;;;21.70;69.70;;;;;;4992838;28;20425;-81
2021/08/15 08:35:15;;;;;;;4.88;2.20;;;21.70;69.70;;;;;;4941179;28;20055;-82
2021/08/15 08:37:44;;;;;;;4.28;2.30;;;21.70;69.70;;;;;;4973241;28;20125;-81
2021/08/15 08:40:13;;;;;;;5.90;2.50;;;21.70;69.80;;;;;;4941198;28;20053;-82
2021/08/15 08:42:41;;;;;;;6.80;3.00;;;21.80;69.70;;;;;;4972569;28;20097;-81
2021/08/15 08:45:10;;;;;;;5.47;2.88;;;21.90;69.50;;;;;;4968044;28;20038;-82
2021/08/15 08:47:37;;;;;;;6.00;2.55;;;22.00;69.40;;;;;;4963179;28;20050;-82
2021/08/15 08:50:04;;;;;;;4.25;2.17;;;22.10;69.30;;;;;;4955150;28;20039;-81
2021/08/15 08:52:32;;;;;;;6.85;2.90;;;22.20;69.10;;;;;;4971177;28;20043;-82
2021/08/15 08:55:00;;;;;;;4.68;2.30;;;22.30;68.80;;;;;;4956527;28;20121;-81
2021/08/15 08:57:28;;;;;;;7.20;3.08;;;22.50;68.50;;;;;;4956809;28;20046;-82
2021/08/15 08:59:55;;;;;;;5.75;2.00;;;22.50;68.20;;;;;;4972661;28;20043;-82
2021/08/15 09:02:22;;;;;;;5.18;2.50;;;22.60;68.10;;;;;;4956665;28;20097;-81
2021/08/15 09:04:49;;;;;;;3.25;1.58;;;22.70;67.60;;;;;;4940476;28;20038;-81
2021/08/15 09:07:18;;;;;;;2.95;1.27;;;22.80;67.70;;;;;;4946657;28;20086;-82
2021/08/15 09:09:55;;;;;;;5.40;2.10;;;22.90;67.60;;;;;;4966321;28;20448;-82
2021/08/15 09:13:00;;;;;;;4.30;1.83;;;22.90;67.00;;;;;;4972393;28;20479;-82
2021/08/15 09:15:27;;;;;;;6.25;2.40;;;22.70;67.40;;;;;;4936782;28;20077;-82
2021/08/15 09:18:02;;;;;;;6.60;2.20;;;22.70;67.30;;;;;;4956092;28;20476;-83
2021/08/15 09:20:32;;;;;;;4.68;2.13;;;22.80;67.10;;;;;;4954661;28;20074;-82
2021/08/15 09:23:15;;;;;;;3.88;2.05;;;22.90;66.90;;;;;;4977705;28;20043;-83
2021/08/15 09:25:45;;;;;;;3.85;1.83;;;22.90;66.70;;;;;;4971526;28;20130;-81
2021/08/15 09:28:13;;;;;;;8.25;2.63;;;23.00;66.40;;;;;;4950437;28;20045;-82
2021/08/15 09:30:40;;;;;;;5.05;2.45;;;23.10;66.00;;;;;;4956818;28;20061;-81
2021/08/15 09:33:09;;;;;;;4.95;1.70;;;23.20;65.90;;;;;;4941005;28;20487;-82
2021/08/15 09:36:11;;;;;;;4.82;1.85;;;23.30;66.00;;;;;;4955828;28;20114;-82
2021/08/15 09:38:47;;;;;;;3.97;1.60;;;23.40;65.70;;;;;;4927158;28;20047;-82
2021/08/15 09:41:22;;;;;;;;;;;23.50;65.60;;;;;;4972062;28;20379;-82
2021/08/15 09:44:12;;;;;;;3.78;2.03;;;23.50;65.60;;;;;;4988310;28;19922;-82
2021/08/15 09:47:03;;;;;;;4.38;2.17;;;23.70;65.60;;;;;;4941081;28;20072;-82
2021/08/15 09:49:32;;;;;;;3.92;1.58;;;23.90;65.10;;;;;;4972564;28;20038;-82
2021/08/15 09:52:00;;;;;;;4.15;1.70;;;24.00;64.90;;;;;;4988115;28;20046;-82
2021/08/15 09:54:28;;;;;;;5.07;2.05;;;24.20;64.50;;;;;;4976559;28;20046;-82
2021/08/15 09:56:56;;;;;;;4.28;1.80;;;24.20;64.30;;;;;;4979376;28;20403;-81
2021/08/15 09:59:33;;;;;;;6.90;2.33;;;24.20;64.20;;;;;;4973924;28;20372;-82
2021/08/15 10:02:01;;;;;;;6.93;2.78;;;24.30;63.90;;;;;;4972800;28;20495;-82
2021/08/15 10:04:28;;;;;;;6.20;1.98;;;24.20;62.70;;;;;;4971891;28;20054;-83
2021/08/15 10:06:56;;;;;;;4.80;2.22;;;24.20;63.40;;;;;;4955498;28;20089;-82
2021/08/15 10:09:27;;;;;;;4.65;1.88;;;24.10;62.40;;;;;;4987978;28;20042;-82
2021/08/15 10:11:57;;;;;;;3.83;1.67;;;24.10;62.70;;;;;;4946179;28;20125;-81
2021/08/15 10:14:24;;;;;;;4.57;2.15;;;24.10;62.70;;;;;;4938504;28;20570;-81
2021/08/15 10:17:03;;;;;;;3.60;1.83;;;24.20;62.30;;;;;;4990510;28;20050;-81
2021/08/15 10:19:36;;;;;;;4.00;1.70;;;24.30;62.10;;;;;;4959444;28;20487;-81
2021/08/15 10:22:04;;;;;;;5.32;2.00;;;24.20;62.30;;;;;;4974871;28;20125;-80
2021/08/15 10:24:41;;;;;;;3.53;1.73;;;24.20;61.90;;;;;;4960558;28;20054;-81
2021/08/15 10:27:09;;;;;;;3.90;1.70;;;24.20;61.80;;;;;;4968190;28;20081;-78
2021/08/15 10:29:38;;;;;;;3.50;1.40;;;24.10;62.00;;;;;;4927635;28;20763;-76
2021/08/15 10:32:07;;;;;;;3.78;1.33;;;24.10;62.10;;;;;;4975840;28;20078;-76
2021/08/15 10:34:50;;;;;;;3.60;1.27;;;24.20;61.60;;;;;;4974940;28;20546;-79
2021/08/15 10:37:23;;;;;;;;;;;24.40;60.70;;;;;;4982399;28;20043;-80
2021/08/15 10:39:56;;;;;;;4.47;1.27;;;24.40;60.80;;;;;;4956454;28;20016;-78
2021/08/15 10:42:42;;;;;;;2.92;1.00;;;24.60;59.20;;;;;;4972997;28;20411;-79
2021/08/15 10:45:22;;;;;;;3.28;1.38;;;24.80;57.70;;;;;;4974303;28;20047;-80
2021/08/15 10:48:04;;;;;;;3.80;1.20;;;24.90;57.50;;;;;;4980533;28;20367;-82
2021/08/15 10:50:47;;;;;;;5.00;1.45;;;25.00;57.00;;;;;;4990119;28;20546;-79
2021/08/15 10:53:29;;;;;;;3.15;1.15;;;24.90;56.00;;;;;;4974540;28;20167;-78
2021/08/15 10:55:59;;;;;;;2.47;0.93;;;24.80;56.50;;;;;;4977529;28;20055;-77
2021/08/15 10:58:40;;;;;;;4.32;1.70;;;25.00;56.50;;;;;;4973870;28;20066;-78
2021/08/15 11:01:09;;;;;;;2.85;1.17;;;25.50;55.60;;;;;;4929071;28;20145;-79
2021/08/15 11:03:51;;;;;;;3.22;0.93;;;25.90;54.70;;;;;;4947575;29;20047;-78
2021/08/15 11:06:30;;;;;;;2.60;0.80;;;26.40;54.40;;;;;;4950927;28;20043;-78
2021/08/15 11:09:12;;;;;;;2.53;0.85;;;26.70;54.00;;;;;;4955298;28;20059;-79
2021/08/15 11:12:34;;;;;;;2.50;0.93;;;27.00;53.90;;;;;;4940170;29;20039;-79
2021/08/15 11:15:23;;;;;;;3.35;1.05;;;27.20;53.30;;;;;;4957080;28;20047;-78
2021/08/15 11:18:14;;;;;;;3.50;1.50;;;27.40;52.80;;;;;;4952523;28;20117;-76
2021/08/15 11:20:52;;;;;;;3.63;1.00;;;27.10;53.10;;;;;;4957879;28;20114;-77
2021/08/15 11:23:28;;;;;;;2.38;1.10;;;26.70;53.40;;;;;;4907398;29;20051;-77
2021/08/15 11:25:56;;;;;;;2.78;1.05;;;26.40;53.80;;;;;;4965113;28;20098;-78
2021/08/15 11:28:29;;;;;;;2.60;1.02;;;26.40;53.80;;;;;;4929922;29;20133;-79
2021/08/15 11:30:59;;;;;;;3.33;0.93;;;26.50;54.20;;;;;;4968620;28;20129;-77
2021/08/15 11:33:29;;;;;;;2.63;1.00;;;26.40;53.70;;;;;;4938414;29;20049;-78
2021/08/15 11:36:43;;;;;;;2.50;0.93;;;26.50;53.40;;;;;;4953055;28;20119;-77
2021/08/15 11:39:31;;;;;;;2.50;0.93;;;26.40;52.50;;;;;;4876866;29;20047;-76
2021/08/15 11:42:15;;;;;;;3.15;0.80;;;26.40;52.80;;;;;;4940630;28;20091;-78
2021/08/15 11:45:04;;;;;;;3.83;1.17;;;26.40;53.00;;;;;;4951940;28;20053;-76
2021/08/15 11:47:38;;;;;;;2.50;1.05;;;27.00;52.40;;;;;;4937772;29;20134;-76
2021/08/15 11:50:19;;;;;;;2.95;1.10;;;27.50;51.70;;;;;;4935811;29;20047;-79
2021/08/15 11:52:48;;;;;;;3.10;0.85;;;27.60;51.30;;;;;;4938279;29;20046;-79
2021/08/15 11:55:25;;;;;;;2.28;1.00;;;27.20;52.00;;;;;;4938358;29;20054;-79
2021/08/15 11:58:08;;;;;;;3.00;1.30;;;27.00;52.50;;;;;;4955194;29;20047;-79
2021/08/15 12:00:53;;;;;;;2.70;0.70;;;27.00;52.90;;;;;;4982265;28;20070;-78
2021/08/15 12:03:22;;;;;;;1.85;0.70;;;27.20;52.90;;;;;;4972850;28;20110;-77
2021/08/15 12:05:56;;;;;;;2.20;0.90;;;27.40;52.90;;;;;;4967807;28;20514;-77
2021/08/15 12:08:49;;;;;;;3.45;0.90;;;28.20;52.40;;;;;;4973874;28;20057;-76
2021/08/15 12:11:34;;;;;;;1.23;0.50;;;28.80;51.90;;;;;;4971855;28;20074;-78
2021/08/15 12:14:07;;;;;;;1.92;0.77;;;29.20;51.60;;;;;;4990324;28;20495;-77
2021/08/15 12:16:36;;;;;;;1.98;0.77;;;29.20;51.00;;;;;;4988413;28;20054;-78
2021/08/15 12:19:06;;;;;;;2.00;0.68;;;29.00;51.30;;;;;;4987246;28;20042;-77
2021/08/15 12:21:37;;;;;;;2.08;0.77;;;28.70;51.40;;;;;;4966089;28;20066;-83
2021/08/15 12:24:10;;;;;;;3.83;0.70;;;28.90;51.50;;;;;;4972987;28;20043;-84
2021/08/15 12:27:06;;;;;;;3.38;0.80;;;28.60;51.80;;;;;;4974449;28;20116;-82
2021/08/15 12:29:36;;;;;;;2.20;0.70;;;28.50;52.00;;;;;;4972467;28;20137;-79
2021/08/15 12:32:09;;;;;;;2.55;0.60;;;28.50;52.10;;;;;;4972116;28;20112;-82
2021/08/15 12:35:01;;;;;;;1.80;0.60;;;28.40;52.20;;;;;;4973372;28;20131;-81
2021/08/15 12:37:39;;;;;;;2.70;0.45;;;28.20;52.70;;;;;;4967232;28;20113;-76
2021/08/15 12:40:08;;;;;;;1.40;0.50;;;28.30;53.20;;;;;;4961991;28;20035;-77
2021/08/15 12:42:37;;;;;;;1.58;0.40;;;28.40;52.90;;;;;;4982554;28;20417;-77
2021/08/15 12:45:09;;;;;;;2.83;0.60;;;28.20;53.00;;;;;;4972883;28;20043;-77
2021/08/15 12:47:46;;;;;;;1.58;0.45;;;28.00;53.40;;;;;;4972637;28;20045;-77
2021/08/15 12:50:18;;;;;;;1.70;0.50;;;28.00;53.80;;;;;;4988423;28;20035;-78
2021/08/15 12:52:54;;;;;;;1.40;0.35;;;28.00;54.00;;;;;;4980521;28;20101;-77
2021/08/15 12:55:33;;;;;;;0.95;0.40;;;28.00;54.10;;;;;;4971830;28;20046;-76
2021/08/15 12:58:04;;;;;;;2.42;0.52;;;28.00;54.30;;;;;;4964008;28;20596;-76
2021/08/15 13:00:37;;;;;;;2.55;0.60;;;27.90;54.20;;;;;;4968093;28;20058;-75
2021/08/15 13:03:09;;;;;;;2.05;0.50;;;27.60;54.30;;;;;;4970477;28;20110;-76
2021/08/15 13:05:38;;;;;;;1.35;0.40;;;27.50;54.60;;;;;;4983282;28;20058;-78
2021/08/15 13:08:07;;;;;;;2.67;0.80;;;27.50;54.80;;;;;;4968567;28;20122;-75
2021/08/15 13:10:35;;;;;;;2.67;0.47;;;27.40;54.70;;;;;;4982671;28;20774;-75